Time;durP1;ratioP1;P1;durP2;ratioP2;P2;SDS_P1;SDS_P2;PMS_P1;PMS_P2;Temp;Humidity;BMP_temperature;BMP_pressure;BME280_temperature;BME280_humidity;BME280_pressure;Samples;Min_cycle;Max_cycle;Signal;HPM_P1;HPM_P2
2022/04/01 00:01:10;;;;;;;5.45;2.15;;;1.60;99.90;;;;;;4971135;28;20046;-80
2022/04/01 00:03:35;;;;;;;8.75;2.30;;;1.70;99.90;;;;;;4970625;28;20106;-78
2022/04/01 00:06:01;;;;;;;5.22;2.33;;;1.70;99.90;;;;;;4987340;28;20038;-79
2022/04/01 00:08:27;;;;;;;4.80;2.33;;;1.70;99.90;;;;;;4989077;28;20515;-78
2022/04/01 00:10:53;;;;;;;4.28;2.42;;;1.70;99.90;;;;;;4987263;28;20050;-79
2022/04/01 00:13:18;;;;;;;3.53;2.50;;;1.70;99.90;;;;;;4988256;28;20515;-79
2022/04/01 00:15:45;;;;;;;3.42;2.00;;;1.80;99.90;;;;;;4988140;28;20038;-79
2022/04/01 00:18:11;;;;;;;4.57;2.40;;;1.80;99.90;;;;;;4987839;28;20510;-79
2022/04/01 00:20:37;;;;;;;3.80;2.17;;;1.70;99.90;;;;;;4973812;28;20054;-79
2022/04/01 00:23:03;;;;;;;4.07;2.50;;;1.70;99.90;;;;;;4974499;28;20050;-79
2022/04/01 00:25:28;;;;;;;4.15;2.30;;;1.70;99.90;;;;;;4991611;28;20086;-77
2022/04/01 00:27:54;;;;;;;5.18;2.50;;;1.80;99.90;;;;;;4991727;28;20070;-78
2022/04/01 00:30:21;;;;;;;4.57;2.30;;;1.70;99.90;;;;;;4992188;28;20053;-77
2022/04/01 00:32:46;;;;;;;6.18;2.72;;;1.80;99.90;;;;;;4973951;28;20046;-77
2022/04/01 00:35:12;;;;;;;4.35;2.35;;;1.70;99.90;;;;;;4992226;28;20505;-78
2022/04/01 00:37:38;;;;;;;5.80;2.40;;;1.80;99.90;;;;;;4992039;28;20045;-79
2022/04/01 00:40:04;;;;;;;3.92;2.20;;;1.80;99.90;;;;;;4991635;28;20042;-79
2022/04/01 00:42:30;;;;;;;9.73;2.67;;;1.80;99.90;;;;;;4990983;28;20129;-77
2022/04/01 00:44:58;;;;;;;4.80;2.45;;;1.80;99.90;;;;;;4974645;28;20614;-78
2022/04/01 00:47:24;;;;;;;5.22;2.45;;;1.80;99.90;;;;;;4990926;28;20054;-78
2022/04/01 00:49:50;;;;;;;4.90;2.30;;;2.70;99.90;;;;;;4991422;28;20057;-78
2022/04/01 00:52:19;;;;;;;5.53;2.35;;;2.70;99.90;;;;;;4991428;28;20039;-78
2022/04/01 00:54:44;;;;;;;4.25;2.53;;;1.80;99.90;;;;;;4990973;28;20042;-79
2022/04/01 00:57:13;;;;;;;5.50;2.55;;;1.80;99.90;;;;;;4991478;28;20380;-79
2022/04/01 00:59:39;;;;;;;4.90;2.58;;;1.80;99.90;;;;;;4974131;28;20046;-79
2022/04/01 01:02:06;;;;;;;6.97;2.60;;;1.80;99.90;;;;;;4991831;28;20057;-79
2022/04/01 01:04:31;;;;;;;5.00;2.83;;;1.80;99.90;;;;;;4991605;28;20129;-78
2022/04/01 01:07:00;;;;;;;4.00;2.40;;;1.80;99.90;;;;;;4991468;28;20130;-79
2022/04/01 01:09:25;;;;;;;5.25;2.70;;;1.80;99.90;;;;;;4992026;28;20050;-78
2022/04/01 01:11:52;;;;;;;6.00;2.60;;;1.80;99.90;;;;;;4990007;28;20576;-78
2022/04/01 01:14:31;;;;;;;6.15;2.53;;;1.80;99.90;;;;;;4974231;28;20091;-77
2022/04/01 01:16:59;;;;;;;5.65;2.80;;;1.80;99.90;;;;;;4972569;28;20467;-78
2022/04/01 01:19:25;;;;;;;6.18;2.72;;;1.80;99.90;;;;;;4992163;28;20096;-79
2022/04/01 01:21:52;;;;;;;4.80;2.90;;;1.80;99.90;;;;;;4973087;28;20046;-78
2022/04/01 01:24:34;;;;;;;4.35;2.33;;;1.90;99.90;;;;;;4990778;28;20506;-79
2022/04/01 01:27:00;;;;;;;5.15;2.53;;;1.90;99.90;;;;;;4972894;28;20471;-78
2022/04/01 01:29:28;;;;;;;5.05;2.72;;;1.90;99.90;;;;;;4973801;28;20128;-79
2022/04/01 01:31:57;;;;;;;4.60;2.65;;;2.20;99.90;;;;;;4985420;28;20441;-78
2022/04/01 01:34:23;;;;;;;4.32;2.30;;;1.90;99.90;;;;;;4991654;28;20474;-79
2022/04/01 01:36:50;;;;;;;4.03;2.40;;;1.90;99.90;;;;;;4989802;28;20454;-78
2022/04/01 01:39:17;;;;;;;5.22;2.50;;;1.90;99.90;;;;;;4991603;28;20483;-78
2022/04/01 01:41:44;;;;;;;6.55;2.55;;;1.90;99.90;;;;;;4989277;28;20085;-78
2022/04/01 01:44:11;;;;;;;5.85;2.67;;;1.90;99.90;;;;;;4991080;28;20069;-78
2022/04/01 01:46:37;;;;;;;5.20;2.50;;;1.90;99.90;;;;;;4973811;28;20046;-78
2022/04/01 01:49:03;;;;;;;6.57;2.63;;;2.00;99.90;;;;;;4972517;28;20469;-78
2022/04/01 01:56:59;;;;;;;5.47;2.22;;;2.10;99.90;;;;;;4971230;28;20046;-79
2022/04/01 01:59:26;;;;;;;5.95;2.38;;;2.00;99.90;;;;;;4991192;28;20085;-78
2022/04/01 02:01:53;;;;;;;6.35;2.63;;;2.10;99.90;;;;;;4990608;28;20050;-78
2022/04/01 02:04:22;;;;;;;5.85;2.50;;;2.10;99.90;;;;;;4990302;28;20050;-78
2022/04/01 02:06:48;;;;;;;4.75;2.30;;;2.10;99.90;;;;;;4990388;28;20041;-78
2022/04/01 02:09:15;;;;;;;6.32;2.65;;;2.10;99.90;;;;;;4990970;28;20039;-78
2022/04/01 02:11:41;;;;;;;6.43;2.63;;;2.50;99.90;;;;;;4970889;28;20049;-78
2022/04/01 02:14:06;;;;;;;4.68;2.17;;;2.10;99.90;;;;;;4991274;28;20490;-78
2022/04/01 02:16:32;;;;;;;5.93;2.22;;;2.10;99.90;;;;;;4972912;28;20046;-78
2022/04/01 02:18:57;;;;;;;4.82;2.35;;;2.10;99.90;;;;;;4990447;28;20534;-79
2022/04/01 02:21:23;;;;;;;4.55;2.30;;;2.10;99.90;;;;;;4990335;28;20125;-79
2022/04/01 02:23:51;;;;;;;4.88;2.15;;;2.10;99.90;;;;;;4989399;28;20046;-79
2022/04/01 02:26:17;;;;;;;4.05;2.13;;;2.10;99.90;;;;;;4989114;28;20141;-79
2022/04/01 02:28:43;;;;;;;5.32;2.47;;;2.10;99.90;;;;;;4972817;28;20046;-79
2022/04/01 02:31:11;;;;;;;5.20;2.20;;;2.20;99.90;;;;;;4972041;28;20065;-79
2022/04/01 02:33:37;;;;;;;6.10;2.30;;;2.20;99.90;;;;;;4991437;28;20085;-79
2022/04/01 02:36:08;;;;;;;6.57;2.15;;;2.20;99.90;;;;;;4992561;28;20507;-79
2022/04/01 02:38:34;;;;;;;3.90;2.20;;;2.20;99.90;;;;;;4992002;28;20030;-79
2022/04/01 02:41:00;;;;;;;5.20;2.22;;;2.10;99.90;;;;;;4974398;28;20501;-78
2022/04/01 02:43:26;;;;;;;4.93;2.22;;;2.10;99.90;;;;;;4989022;28;20121;-79
2022/04/01 02:45:51;;;;;;;5.53;2.20;;;2.10;99.90;;;;;;4988875;28;20046;-78
2022/04/01 02:48:19;;;;;;;8.95;2.60;;;2.10;99.90;;;;;;4990224;28;20120;-79
2022/04/01 02:50:47;;;;;;;6.13;2.95;;;2.10;99.90;;;;;;4989168;28;20042;-79
2022/04/01 02:53:14;;;;;;;5.78;2.22;;;2.10;99.90;;;;;;4988750;28;20454;-79
2022/04/01 02:55:40;;;;;;;5.55;2.15;;;2.10;99.90;;;;;;4976074;28;20431;-79
2022/04/01 02:58:06;;;;;;;6.35;2.22;;;2.10;99.90;;;;;;4971527;28;20435;-79
2022/04/01 03:00:33;;;;;;;5.78;2.50;;;2.10;99.90;;;;;;4989226;28;20101;-79
2022/04/01 03:02:59;;;;;;;6.47;2.25;;;2.10;99.90;;;;;;4989405;28;20122;-79
2022/04/01 03:05:24;;;;;;;5.20;2.00;;;2.10;99.90;;;;;;4990096;28;20633;-79
2022/04/01 03:07:50;;;;;;;4.60;2.10;;;2.10;99.90;;;;;;4988888;28;20491;-79
2022/04/01 03:10:17;;;;;;;7.60;2.30;;;2.10;99.90;;;;;;4989434;28;20065;-80
2022/04/01 03:12:43;;;;;;;5.65;2.25;;;2.20;99.90;;;;;;4988556;28;20050;-79
2022/04/01 03:15:09;;;;;;;4.97;2.20;;;2.20;99.90;;;;;;4988581;28;20053;-80
2022/04/01 03:17:34;;;;;;;3.20;2.00;;;2.20;99.90;;;;;;4989560;28;20085;-79
2022/04/01 03:20:01;;;;;;;8.20;2.10;;;2.20;99.90;;;;;;4952213;28;20047;-78
2022/04/01 03:22:27;;;;;;;4.75;2.03;;;2.20;99.90;;;;;;4990209;28;20046;-78
2022/04/01 03:24:52;;;;;;;3.63;2.10;;;2.20;99.90;;;;;;4988531;28;20510;-78
2022/04/01 03:27:18;;;;;;;3.60;2.03;;;2.20;99.90;;;;;;4987701;28;20125;-78
2022/04/01 03:29:43;;;;;;;5.70;2.42;;;3.00;99.90;;;;;;4989350;28;20050;-79
2022/04/01 03:32:10;;;;;;;5.40;2.38;;;2.20;99.90;;;;;;4989063;28;20046;-78
2022/04/01 03:34:36;;;;;;;10.23;2.38;;;2.20;99.90;;;;;;4971410;28;20058;-78
2022/04/01 03:37:05;;;;;;;4.95;2.25;;;2.20;99.90;;;;;;4989004;28;20089;-78
2022/04/01 03:39:32;;;;;;;7.45;2.20;;;2.20;99.90;;;;;;4973971;28;20061;-79
2022/04/01 03:41:59;;;;;;;6.97;2.30;;;2.20;99.90;;;;;;4987575;28;20038;-78
2022/04/01 03:44:26;;;;;;;4.47;1.92;;;2.20;99.90;;;;;;4972706;28;20492;-79
2022/04/01 03:47:05;;;;;;;4.32;1.80;;;2.20;99.90;;;;;;4973025;28;20340;-79
2022/04/01 03:49:33;;;;;;;4.68;2.30;;;2.20;99.90;;;;;;4975587;28;20054;-79
2022/04/01 03:51:59;;;;;;;4.03;2.17;;;2.30;99.90;;;;;;4988295;28;20042;-79
2022/04/01 03:54:27;;;;;;;4.45;2.17;;;2.30;99.90;;;;;;4971390;28;20056;-79
2022/04/01 03:57:00;;;;;;;5.95;2.00;;;2.30;99.90;;;;;;4968322;28;20086;-79
2022/04/01 03:59:40;;;;;;;4.15;2.08;;;2.30;99.90;;;;;;4989324;28;20050;-79
2022/04/01 04:02:09;;;;;;;7.18;1.90;;;2.30;99.90;;;;;;4971429;28;20034;-79
2022/04/01 04:04:36;;;;;;;4.32;2.20;;;2.30;99.90;;;;;;4989439;28;20042;-79
2022/04/01 04:07:06;;;;;;;3.05;1.83;;;2.30;99.90;;;;;;4988573;28;20038;-79
2022/04/01 04:09:34;;;;;;;4.03;1.90;;;2.30;99.90;;;;;;4970446;28;20049;-79
2022/04/01 04:12:01;;;;;;;4.32;2.13;;;2.30;99.90;;;;;;4987348;28;20049;-79
2022/04/01 04:14:28;;;;;;;4.75;2.20;;;2.30;99.90;;;;;;4988755;28;20380;-79
2022/04/01 04:16:56;;;;;;;5.63;2.10;;;2.30;99.90;;;;;;4987560;28;20141;-79
2022/04/01 04:19:31;;;;;;;6.05;2.08;;;2.30;99.90;;;;;;4988755;28;20124;-79
2022/04/01 04:22:14;;;;;;;5.33;2.13;;;2.40;99.90;;;;;;4990691;28;20054;-79
2022/04/01 04:25:04;;;;;;;5.03;2.22;;;2.40;99.90;;;;;;4974507;28;20317;-79
2022/04/01 04:27:32;;;;;;;6.53;1.95;;;2.40;99.90;;;;;;4973347;28;20054;-79
2022/04/01 04:30:08;;;;;;;5.90;2.17;;;2.40;99.90;;;;;;4988186;28;20121;-79
2022/04/01 04:32:38;;;;;;;3.30;1.90;;;2.40;99.90;;;;;;4981966;28;20403;-78
2022/04/01 04:35:07;;;;;;;5.50;2.20;;;2.40;99.90;;;;;;4988302;28;20121;-78
2022/04/01 04:37:43;;;;;;;5.65;2.40;;;2.40;99.90;;;;;;4987892;28;20128;-79
2022/04/01 04:40:12;;;;;;;3.03;1.90;;;2.40;99.90;;;;;;4987911;28;20050;-78
2022/04/01 04:42:44;;;;;;;5.30;2.25;;;2.40;99.90;;;;;;4969788;28;20077;-78
2022/04/01 04:45:16;;;;;;;6.85;2.20;;;2.40;99.90;;;;;;4987072;28;20082;-79
2022/04/01 04:47:42;;;;;;;5.25;2.00;;;2.40;99.90;;;;;;4987923;28;20061;-79
2022/04/01 04:50:09;;;;;;;5.22;2.17;;;2.40;99.90;;;;;;4987411;28;20046;-79
2022/04/01 04:52:34;;;;;;;5.78;2.30;;;2.40;99.90;;;;;;4987272;28;20415;-79
2022/04/01 04:55:06;;;;;;;4.55;2.10;;;2.30;99.90;;;;;;4970172;28;20054;-79
2022/04/01 04:57:33;;;;;;;4.95;1.90;;;2.40;99.90;;;;;;4953968;28;20050;-78
2022/04/01 05:00:00;;;;;;;5.68;2.10;;;2.40;99.90;;;;;;4953900;28;20125;-78
2022/04/01 05:02:44;;;;;;;4.43;2.20;;;2.40;99.90;;;;;;4987914;28;20043;-77
2022/04/01 05:05:28;;;;;;;4.32;2.03;;;2.70;99.90;;;;;;4970690;28;20042;-79
2022/04/01 05:08:05;;;;;;;6.82;2.15;;;2.40;99.90;;;;;;4990543;28;20038;-78
2022/04/01 05:10:41;;;;;;;8.27;2.28;;;2.40;99.90;;;;;;4974668;28;20054;-78
2022/04/01 05:13:20;;;;;;;5.15;2.25;;;2.40;99.90;;;;;;4990451;28;20047;-78
2022/04/01 05:15:52;;;;;;;4.32;2.15;;;2.40;99.90;;;;;;4990551;28;20113;-79
2022/04/01 05:18:32;;;;;;;4.00;2.08;;;2.50;99.90;;;;;;4993485;28;20054;-78
2022/04/01 05:21:02;;;;;;;7.38;2.10;;;2.50;99.90;;;;;;4990816;28;20042;-78
2022/04/01 05:24:00;;;;;;;3.60;2.10;;;2.50;99.90;;;;;;4974103;28;20383;-78
2022/04/01 05:26:38;;;;;;;6.60;2.13;;;2.50;99.90;;;;;;4986961;28;20499;-78
2022/04/01 05:29:07;;;;;;;3.33;1.92;;;2.50;99.90;;;;;;4973903;28;20046;-78
2022/04/01 05:31:46;;;;;;;4.00;1.98;;;2.50;99.90;;;;;;4973214;28;20124;-79
2022/04/01 05:34:17;;;;;;;5.20;2.20;;;2.50;99.90;;;;;;4992963;28;20030;-79
2022/04/01 05:36:44;;;;;;;4.35;1.90;;;2.50;99.90;;;;;;4972902;28;20066;-79
2022/04/01 05:39:12;;;;;;;4.72;1.92;;;2.50;99.90;;;;;;4971551;28;20061;-79
2022/04/01 05:41:39;;;;;;;4.63;1.98;;;2.50;99.90;;;;;;4968029;28;20043;-78
2022/04/01 05:44:09;;;;;;;5.15;1.98;;;2.50;99.90;;;;;;4983288;28;20108;-79
2022/04/01 05:46:36;;;;;;;6.88;1.98;;;2.50;99.90;;;;;;4990634;28;20770;-78
2022/04/01 05:49:03;;;;;;;3.42;1.77;;;2.60;99.90;;;;;;4989739;28;20046;-79
2022/04/01 05:51:33;;;;;;;3.30;2.00;;;2.80;99.90;;;;;;4956880;28;20135;-79
2022/04/01 05:54:00;;;;;;;7.45;2.42;;;2.60;99.90;;;;;;4972757;28;20119;-79
2022/04/01 05:56:27;;;;;;;7.20;2.30;;;2.60;99.90;;;;;;4952542;28;20376;-79
2022/04/01 05:58:53;;;;;;;6.20;2.38;;;2.60;99.90;;;;;;4963352;28;20038;-78
2022/04/01 06:01:40;;;;;;;5.65;2.35;;;2.60;99.90;;;;;;4991040;28;20123;-78
2022/04/01 06:04:24;;;;;;;5.10;2.20;;;2.70;99.90;;;;;;4990046;28;20050;-79
2022/04/01 06:06:59;;;;;;;5.40;2.20;;;2.70;99.90;;;;;;4989589;28;20057;-79
2022/04/01 06:09:38;;;;;;;5.47;2.20;;;2.70;99.90;;;;;;4990035;28;20054;-79
2022/04/01 06:12:17;;;;;;;3.70;2.20;;;2.80;99.90;;;;;;4988669;28;20082;-79
2022/04/01 06:14:53;;;;;;;4.57;1.80;;;4.30;99.90;;;;;;4972224;28;20050;-79
2022/04/01 06:17:30;;;;;;;3.90;2.30;;;2.80;99.90;;;;;;4971758;28;20460;-79
2022/04/01 06:19:57;;;;;;;6.40;1.90;;;2.80;99.90;;;;;;4972150;28;20081;-79
2022/04/01 06:22:30;;;;;;;5.03;1.92;;;2.80;99.90;;;;;;4990041;28;20057;-78
2022/04/01 06:25:15;;;;;;;3.33;1.90;;;2.20;99.90;;;;;;4983729;28;20050;-79
2022/04/01 06:27:47;;;;;;;3.55;2.17;;;2.90;99.90;;;;;;4937403;28;20051;-79
2022/04/01 06:30:13;;;;;;;3.65;2.17;;;4.20;99.90;;;;;;4953131;28;20454;-78
2022/04/01 06:32:57;;;;;;;5.38;2.10;;;3.30;99.90;;;;;;4970685;28;20142;-80
2022/04/01 06:35:26;;;;;;;2.92;2.05;;;3.00;99.90;;;;;;4971648;28;20065;-80
2022/04/01 06:38:01;;;;;;;7.47;2.35;;;4.30;99.90;;;;;;4988823;28;20038;-79
2022/04/01 06:41:06;;;;;;;6.53;2.22;;;3.20;99.90;;;;;;4989540;28;20142;-79
2022/04/01 06:43:32;;;;;;;4.82;2.20;;;3.20;99.90;;;;;;4969975;28;20106;-78
2022/04/01 06:45:58;;;;;;;5.60;2.08;;;3.20;99.90;;;;;;4973020;28;20051;-80
2022/04/01 06:48:23;;;;;;;4.45;2.22;;;3.30;99.90;;;;;;4971727;28;20399;-78
2022/04/01 06:50:49;;;;;;;7.10;2.03;;;3.30;99.90;;;;;;4988502;28;20050;-79
2022/04/01 06:53:19;;;;;;;6.75;2.15;;;3.30;99.90;;;;;;4973114;28;20057;-78
2022/04/01 06:55:46;;;;;;;5.28;2.10;;;3.40;99.90;;;;;;4988308;28;20042;-79
2022/04/01 06:58:12;;;;;;;4.80;2.33;;;3.60;99.90;;;;;;4987313;28;20356;-80
2022/04/01 07:00:40;;;;;;;5.35;2.05;;;3.40;99.90;;;;;;4988076;28;20050;-78
2022/04/01 07:03:06;;;;;;;4.53;2.00;;;3.40;99.90;;;;;;4988912;28;20046;-78
2022/04/01 07:05:34;;;;;;;4.47;1.88;;;3.40;99.90;;;;;;4971448;28;20069;-79
2022/04/01 07:08:01;;;;;;;3.85;1.70;;;3.50;99.90;;;;;;4989754;28;20050;-79
2022/04/01 07:10:27;;;;;;;4.32;1.70;;;3.50;99.90;;;;;;4971622;28;20069;-79
2022/04/01 07:12:52;;;;;;;1.95;1.55;;;3.50;99.90;;;;;;4969587;28;20474;-80
2022/04/01 07:15:18;;;;;;;5.50;1.90;;;3.60;99.90;;;;;;4990275;28;20069;-78
2022/04/01 07:17:44;;;;;;;4.38;1.88;;;3.60;99.90;;;;;;4971194;28;20047;-79
2022/04/01 07:20:12;;;;;;;3.42;1.67;;;3.60;99.90;;;;;;4990152;28;20161;-78
2022/04/01 07:22:39;;;;;;;5.50;1.77;;;3.10;99.90;;;;;;4988347;28;20535;-79
2022/04/01 07:25:05;;;;;;;3.50;1.85;;;3.70;99.90;;;;;;4982360;28;20050;-78
2022/04/01 07:27:31;;;;;;;5.75;2.28;;;3.70;99.90;;;;;;4968034;28;20050;-80
2022/04/01 07:29:56;;;;;;;4.72;1.70;;;3.70;99.90;;;;;;4985831;28;20141;-80
2022/04/01 07:32:32;;;;;;;4.25;1.88;;;3.70;99.90;;;;;;4971766;28;20042;-79
2022/04/01 07:35:00;;;;;;;3.42;2.10;;;3.70;99.90;;;;;;4989007;28;20451;-79
2022/04/01 07:37:27;;;;;;;3.95;2.05;;;4.90;99.90;;;;;;4972156;28;20086;-79
2022/04/01 07:39:54;;;;;;;4.07;2.03;;;3.70;99.90;;;;;;4988346;28;20046;-79
2022/04/01 07:42:21;;;;;;;6.20;2.67;;;3.80;99.90;;;;;;4969701;28;20104;-78
2022/04/01 07:44:48;;;;;;;8.25;2.10;;;3.80;99.90;;;;;;4970901;28;20042;-79
2022/04/01 07:47:14;;;;;;;4.43;2.00;;;3.80;99.90;;;;;;4989121;28;20042;-79
2022/04/01 07:49:41;;;;;;;3.65;1.95;;;3.80;99.90;;;;;;4987457;28;20506;-80
2022/04/01 07:52:08;;;;;;;5.25;2.22;;;3.90;99.90;;;;;;4970958;28;20038;-81
2022/04/01 07:54:38;;;;;;;3.83;1.95;;;3.90;99.90;;;;;;4987893;28;20399;-78
2022/04/01 07:57:06;;;;;;;3.20;2.00;;;4.00;99.90;;;;;;4953771;28;20046;-79
2022/04/01 07:59:32;;;;;;;5.28;1.90;;;4.00;99.90;;;;;;4988061;28;20470;-79
2022/04/01 08:01:58;;;;;;;5.07;2.00;;;4.10;99.90;;;;;;4987433;28;20050;-79
2022/04/01 08:04:25;;;;;;;3.08;1.95;;;4.10;99.90;;;;;;4972264;28;20081;-80
2022/04/01 08:06:52;;;;;;;5.13;2.42;;;4.10;99.90;;;;;;4990820;28;20054;-79
2022/04/01 08:09:18;;;;;;;4.10;2.13;;;4.20;99.90;;;;;;4989896;28;20424;-79
2022/04/01 08:11:43;;;;;;;4.22;2.20;;;4.10;99.90;;;;;;4968925;28;20053;-78
2022/04/01 08:14:09;;;;;;;5.05;2.17;;;4.20;99.90;;;;;;4988627;28;20129;-79
2022/04/01 08:16:35;;;;;;;4.55;2.10;;;4.30;99.90;;;;;;4987361;28;20069;-79
2022/04/01 08:19:02;;;;;;;3.63;2.20;;;4.30;99.90;;;;;;4987807;28;20181;-79
2022/04/01 08:21:28;;;;;;;4.28;2.00;;;4.40;99.90;;;;;;4971044;28;20179;-80
2022/04/01 08:23:54;;;;;;;4.50;2.15;;;4.50;99.90;;;;;;4986950;28;20165;-80
2022/04/01 08:26:20;;;;;;;4.18;2.28;;;4.60;99.90;;;;;;4987987;28;20046;-79
2022/04/01 08:28:46;;;;;;;3.63;2.10;;;4.70;99.90;;;;;;4990181;28;20444;-79
2022/04/01 08:31:11;;;;;;;4.43;2.10;;;4.80;99.90;;;;;;4987670;28;20043;-79
2022/04/01 08:33:37;;;;;;;3.85;2.03;;;4.90;99.90;;;;;;4971176;28;20050;-79
2022/04/01 08:36:04;;;;;;;4.00;2.20;;;5.00;99.90;;;;;;4969893;28;20046;-79
2022/04/01 08:38:30;;;;;;;5.68;2.33;;;4.90;99.90;;;;;;4954629;28;20050;-78
2022/04/01 08:40:56;;;;;;;6.25;1.98;;;5.00;99.90;;;;;;4989317;28;20035;-80
2022/04/01 08:43:30;;;;;;;4.78;2.10;;;4.00;99.90;;;;;;4973544;28;20077;-80
2022/04/01 08:45:58;;;;;;;5.43;2.33;;;6.30;99.90;;;;;;4974083;28;20046;-78
2022/04/01 08:48:25;;;;;;;4.35;2.10;;;5.40;99.90;;;;;;4974702;28;20167;-80
2022/04/01 08:50:50;;;;;;;3.55;2.10;;;5.40;99.90;;;;;;4972179;28;20408;-79
2022/04/01 08:53:17;;;;;;;3.60;2.15;;;5.30;99.90;;;;;;4990652;28;20092;-80
2022/04/01 08:55:47;;;;;;;3.67;2.08;;;5.40;99.90;;;;;;4971708;28;20054;-80
2022/04/01 08:58:13;;;;;;;2.97;2.03;;;5.50;99.90;;;;;;4981424;28;20034;-79
2022/04/01 09:00:39;;;;;;;4.20;2.30;;;5.50;99.90;;;;;;4992151;28;20050;-78
2022/04/01 09:03:08;;;;;;;3.53;1.88;;;5.60;99.90;;;;;;4973536;28;20506;-78
2022/04/01 09:05:34;;;;;;;4.03;2.20;;;5.60;99.90;;;;;;4973473;28;20046;-78
2022/04/01 09:08:04;;;;;;;3.45;2.08;;;6.80;99.90;;;;;;4990795;28;20039;-80
2022/04/01 09:10:30;;;;;;;3.45;2.13;;;5.70;99.90;;;;;;4990787;28;20081;-80
2022/04/01 09:12:56;;;;;;;4.60;2.30;;;5.80;99.90;;;;;;4972304;28;20451;-80
2022/04/01 09:15:37;;;;;;;3.90;2.33;;;5.90;99.90;;;;;;4973869;28;20038;-79
2022/04/01 09:18:03;;;;;;;5.40;2.40;;;5.90;99.90;;;;;;4990809;28;20080;-79
2022/04/01 09:20:42;;;;;;;3.58;2.30;;;5.90;99.90;;;;;;4971026;28;20120;-79
2022/04/01 09:23:08;;;;;;;7.55;2.67;;;5.90;99.90;;;;;;4973763;28;20076;-77
2022/04/01 09:25:34;;;;;;;4.93;2.40;;;7.40;99.90;;;;;;4972310;28;20149;-80
2022/04/01 09:27:59;;;;;;;4.15;2.30;;;6.20;99.90;;;;;;4956136;28;20144;-80
2022/04/01 09:30:28;;;;;;;5.65;2.47;;;6.30;99.90;;;;;;4974125;28;20133;-80
2022/04/01 09:32:57;;;;;;;4.85;2.47;;;6.40;99.90;;;;;;4991197;28;20043;-81
2022/04/01 09:35:27;;;;;;;5.05;2.35;;;6.20;99.90;;;;;;4977752;28;20356;-77
2022/04/01 09:37:59;;;;;;;4.25;2.40;;;6.40;99.90;;;;;;4994365;28;20555;-78
2022/04/01 09:40:26;;;;;;;5.85;2.35;;;6.60;99.90;;;;;;4971652;28;20184;-79
2022/04/01 09:42:59;;;;;;;3.63;1.95;;;6.60;99.90;;;;;;4972086;28;20042;-79
2022/04/01 09:45:28;;;;;;;4.18;2.15;;;7.00;99.90;;;;;;4972927;28;20050;-78
2022/04/01 09:48:05;;;;;;;5.63;2.50;;;7.00;99.90;;;;;;4989904;28;20100;-81
2022/04/01 09:50:43;;;;;;;5.13;2.20;;;7.30;99.90;;;;;;4990586;28;20050;-78
2022/04/01 09:53:12;;;;;;;5.00;2.30;;;7.50;99.90;;;;;;4972565;28;20093;-79
2022/04/01 09:55:39;;;;;;;4.55;2.30;;;7.80;99.90;;;;;;4972618;28;20419;-78
2022/04/01 09:58:06;;;;;;;4.40;2.05;;;8.40;99.90;;;;;;4989057;28;20388;-79
2022/04/01 10:00:33;;;;;;;6.10;2.50;;;8.70;99.90;;;;;;4990685;28;20129;-78
2022/04/01 10:02:59;;;;;;;4.63;2.20;;;9.10;99.90;;;;;;4990840;28;20130;-79
2022/04/01 10:05:26;;;;;;;4.47;2.40;;;9.30;99.90;;;;;;4979700;28;20174;-79
2022/04/01 10:07:56;;;;;;;4.32;2.63;;;9.60;99.90;;;;;;4969997;28;20057;-78
2022/04/01 10:10:25;;;;;;;5.07;2.20;;;10.70;99.90;;;;;;4969780;28;20070;-79
2022/04/01 10:12:53;;;;;;;5.30;2.22;;;9.90;99.90;;;;;;4972287;28;20062;-79
2022/04/01 10:15:19;;;;;;;6.93;2.40;;;10.20;99.90;;;;;;4971648;28;20455;-80
2022/04/01 10:17:46;;;;;;;6.10;2.47;;;10.90;99.90;;;;;;4953948;28;20110;-79
2022/04/01 10:20:13;;;;;;;4.63;2.20;;;11.80;99.90;;;;;;4971476;28;20408;-81
2022/04/01 10:22:41;;;;;;;5.20;3.03;;;13.00;99.50;;;;;;4952621;28;20047;-81
2022/04/01 10:25:19;;;;;;;5.13;2.20;;;13.00;98.40;;;;;;4952912;28;20138;-79
2022/04/01 10:27:50;;;;;;;4.15;2.35;;;13.20;97.30;;;;;;4969136;28;20071;-79
2022/04/01 10:30:18;;;;;;;5.22;2.33;;;13.10;96.80;;;;;;4952810;28;20082;-79
2022/04/01 10:32:46;;;;;;;4.28;2.00;;;12.90;96.80;;;;;;4970310;28;20082;-79
2022/04/01 10:35:33;;;;;;;6.97;2.15;;;13.40;97.10;;;;;;4971007;28;20113;-78
2022/04/01 10:38:05;;;;;;;4.82;2.28;;;12.00;96.20;;;;;;4967828;28;20041;-80
2022/04/01 10:40:36;;;;;;;4.43;2.22;;;12.80;97.40;;;;;;4989431;28;20081;-78
2022/04/01 10:43:17;;;;;;;4.57;2.53;;;13.40;95.40;;;;;;4988244;28;20089;-80
2022/04/01 10:45:59;;;;;;;5.47;2.72;;;13.80;94.00;;;;;;4989375;28;20391;-80
2022/04/01 10:51:37;;;;;;;5.25;1.88;;;13.90;93.50;;;;;;4944264;29;20043;-81
2022/04/01 10:54:06;;;;;;;4.57;2.22;;;13.80;95.10;;;;;;4961350;28;20046;-81
2022/04/01 10:56:36;;;;;;;4.80;2.20;;;13.30;93.90;;;;;;4963966;28;20073;-81
2022/04/01 10:59:15;;;;;;;4.47;2.30;;;12.60;94.50;;;;;;4938129;28;20159;-81
2022/04/01 11:01:52;;;;;;;5.63;2.10;;;12.30;94.50;;;;;;4953822;28;20471;-82
2022/04/01 11:04:17;;;;;;;6.78;2.42;;;11.90;97.00;;;;;;4968181;28;20503;-82
2022/04/01 11:06:53;;;;;;;5.18;2.63;;;11.60;98.00;;;;;;4986084;28;20100;-82
2022/04/01 11:09:45;;;;;;;4.47;2.35;;;11.30;98.50;;;;;;4986394;28;20054;-81
2022/04/01 11:12:20;;;;;;;4.43;2.25;;;11.20;99.60;;;;;;4967166;28;20062;-81
2022/04/01 11:14:58;;;;;;;3.95;2.08;;;10.80;99.70;;;;;;4986140;28;20058;-82
2022/04/01 11:17:49;;;;;;;3.60;2.30;;;11.00;99.90;;;;;;4986285;28;20125;-81
2022/04/01 11:20:32;;;;;;;5.95;2.30;;;11.40;99.90;;;;;;4985181;28;20058;-81
2022/04/01 11:22:59;;;;;;;6.78;2.58;;;11.60;99.10;;;;;;4985788;28;20181;-82
2022/04/01 11:25:24;;;;;;;6.72;2.70;;;11.90;99.40;;;;;;4964035;28;20117;-83
2022/04/01 11:28:06;;;;;;;6.68;2.55;;;12.10;99.30;;;;;;4947771;28;20062;-82
2022/04/01 11:30:41;;;;;;;5.50;2.65;;;12.40;98.70;;;;;;4968311;28;20413;-82
2022/04/01 11:33:10;;;;;;;5.28;2.50;;;12.30;98.00;;;;;;4965234;28;20488;-82
2022/04/01 11:35:41;;;;;;;5.13;2.40;;;13.00;98.60;;;;;;4984639;28;20569;-83
2022/04/01 11:38:18;;;;;;;3.97;2.17;;;13.40;96.90;;;;;;4952388;28;20050;-83
2022/04/01 11:41:03;;;;;;;5.82;2.30;;;13.60;96.40;;;;;;4982932;28;20117;-84
2022/04/01 11:43:29;;;;;;;4.15;1.90;;;13.70;94.90;;;;;;4991906;28;20064;-71
2022/04/01 11:46:03;;;;;;;4.45;1.77;;;13.60;82.80;;;;;;4988660;28;20050;-71
2022/04/01 11:48:41;;;;;;;8.10;2.70;;;12.90;71.10;;;;;;4954130;28;20090;-71
2022/04/01 11:51:16;;;;;;;3.95;2.20;;;12.00;73.50;;;;;;4951811;28;20137;-70
2022/04/01 11:53:48;;;;;;;3.40;1.70;;;11.40;74.50;;;;;;4967310;28;20042;-70
2022/04/01 11:56:17;;;;;;;5.78;2.28;;;10.80;76.50;;;;;;4968880;28;20444;-70
2022/04/01 11:59:03;;;;;;;4.13;2.28;;;11.00;78.30;;;;;;4968661;28;20105;-69
2022/04/01 12:01:34;;;;;;;4.75;1.88;;;11.50;80.90;;;;;;4966396;28;20101;-69
2022/04/01 12:04:11;;;;;;;3.83;2.05;;;11.90;77.80;;;;;;4971290;28;20166;-69
2022/04/01 12:09:31;;;;;;;5.30;2.20;;;11.40;72.10;;;;;;4987743;28;20050;-69
2022/04/01 12:11:58;;;;;;;5.18;2.78;;;11.30;74.00;;;;;;4953077;28;20050;-69
2022/04/01 12:14:24;;;;;;;6.72;2.90;;;11.10;80.30;;;;;;4987244;28;20049;-70
2022/04/01 12:16:50;;;;;;;5.63;2.38;;;10.90;83.50;;;;;;4992826;28;20141;-69
2022/04/01 12:19:20;;;;;;;5.13;2.50;;;10.80;81.80;;;;;;4995300;28;20054;-69
2022/04/01 12:21:57;;;;;;;5.82;3.13;;;10.40;86.40;;;;;;4959628;28;20121;-69
2022/04/01 12:24:26;;;;;;;6.45;2.88;;;10.30;91.40;;;;;;4973480;28;20058;-69
2022/04/01 12:26:52;;;;;;;6.47;2.65;;;10.00;93.60;;;;;;4974619;28;20050;-70
2022/04/01 12:29:24;;;;;;;6.55;2.83;;;9.90;94.80;;;;;;4977025;28;20403;-70
2022/04/01 12:31:52;;;;;;;6.05;3.03;;;9.40;95.30;;;;;;4974908;28;20046;-69
2022/04/01 12:34:18;;;;;;;5.32;2.35;;;9.50;97.10;;;;;;4975564;28;20126;-69
2022/04/01 12:37:02;;;;;;;5.80;2.58;;;9.20;97.60;;;;;;4974139;28;20046;-71
2022/04/01 12:39:32;;;;;;;4.85;2.60;;;9.00;97.70;;;;;;4975895;28;20046;-70
2022/04/01 12:42:01;;;;;;;7.03;2.83;;;8.80;99.00;;;;;;4971872;28;20074;-69
2022/04/01 12:44:29;;;;;;;5.55;2.05;;;8.90;99.70;;;;;;4975443;28;20123;-70
2022/04/01 12:46:59;;;;;;;5.00;2.03;;;9.10;98.70;;;;;;4977330;28;20042;-70
2022/04/01 12:49:26;;;;;;;8.82;2.10;;;9.10;98.10;;;;;;4991434;28;20451;-70
2022/04/01 12:51:55;;;;;;;4.20;2.50;;;9.10;98.30;;;;;;4973633;28;20051;-70
2022/04/01 12:54:34;;;;;;;5.88;2.20;;;9.10;99.10;;;;;;4977590;28;20047;-69
2022/04/01 12:57:11;;;;;;;5.13;1.98;;;9.10;99.40;;;;;;4972948;28;20236;-69
2022/04/01 12:59:40;;;;;;;4.53;2.38;;;9.00;98.60;;;;;;4975083;28;20051;-69
2022/04/01 13:02:14;;;;;;;4.40;1.95;;;8.90;98.40;;;;;;4974535;28;20114;-69
2022/04/01 13:04:45;;;;;;;4.57;2.10;;;8.80;98.60;;;;;;4966559;28;20051;-70
2022/04/01 13:07:15;;;;;;;5.63;2.53;;;8.80;98.20;;;;;;4969912;28;20050;-69
2022/04/01 13:09:48;;;;;;;6.28;2.22;;;8.90;97.90;;;;;;4955741;28;20629;-71
2022/04/01 13:12:14;;;;;;;6.35;2.30;;;8.90;97.90;;;;;;4953541;28;20043;-69
2022/04/01 13:14:40;;;;;;;2.58;1.80;;;8.80;97.20;;;;;;4963934;28;20365;-68
2022/04/01 13:17:15;;;;;;;3.50;1.83;;;8.90;96.50;;;;;;4974637;28;20128;-69
2022/04/01 13:19:44;;;;;;;3.40;1.90;;;8.90;95.70;;;;;;4973787;28;20411;-69